Time,TemperatureF,DewpointF,PressureIn,WindDirection,WindDirectionDegrees,WindSpeedMPH,WindSpeedGustMPH,Humidity,HourlyPrecipIn,Conditions,Clouds,dailyrainin,SoftwareType,DateUTC
2013-07-24 00:02:00,61.0,58.0,-100.00,ESE,110,1.0,3.0,89,-99.99,,,-99.99,,2013-07-24 07:02:00,
2013-07-24 00:10:00,61.0,57.0,-100.00,ESE,105,6.0,9.0,86,-99.99,,,-99.99,,2013-07-24 07:10:00,
2013-07-24 01:10:00,59.0,56.0,-100.00,East,95,6.0,9.0,89,-99.99,,,-99.99,,2013-07-24 08:10:00,
2013-07-24 02:02:00,59.0,56.0,-100.00,East,95,6.0,9.0,89,-99.99,,,-99.99,,2013-07-24 09:02:00,
2013-07-24 02:10:00,58.0,55.0,-100.00,ESE,115,6.0,8.0,89,-99.99,,,-99.99,,2013-07-24 09:10:00,
2013-07-24 03:10:00,57.0,54.0,-100.00,ESE,105,6.0,8.0,89,-99.99,,,-99.99,,2013-07-24 10:10:00,
2013-07-24 04:02:00,57.0,54.0,-100.00,ESE,105,6.0,8.0,89,-99.99,,,-99.99,,2013-07-24 11:02:00,
2013-07-24 04:10:00,55.0,53.0,-100.00,ENE,70,1.0,2.0,92,-99.99,,,-99.99,,2013-07-24 11:10:00,
2013-07-24 05:10:00,54.0,53.0,-100.00,East,80,1.0,5.0,96,-99.99,,,-99.99,,2013-07-24 12:10:00,
2013-07-24 06:10:00,54.0,53.0,-100.00,ESE,105,2.0,7.0,96,-99.99,,,-99.99,,2013-07-24 13:10:00,
2013-07-24 08:10:00,60.0,57.0,-100.00,North,0,0.0,1.0,89,-99.99,,,-99.99,,2013-07-24 15:10:00,
2013-07-24 09:10:00,74.0,59.0,-100.00,WSW,255,2.0,5.0,59,-99.99,,,-99.99,,2013-07-24 16:10:00,
2013-07-24 10:10:00,81.0,56.0,-100.00,SW,230,3.0,6.0,42,-99.99,,,-99.99,,2013-07-24 17:10:00,
2013-07-24 11:10:00,80.0,59.0,-100.00,WSW,255,6.0,9.0,48,-99.99,,,-99.99,,2013-07-24 18:10:00,
2013-07-24 12:10:00,83.0,56.0,-100.00,West,260,5.0,9.0,39,-99.99,,,-99.99,,2013-07-24 19:10:00,
2013-07-24 13:10:00,83.0,58.0,-100.00,WSW,250,1.0,7.0,42,-99.99,,,-99.99,,2013-07-24 20:10:00,
2013-07-24 14:10:00,85.0,58.0,-100.00,WSW,240,6.0,9.0,39,-99.99,,,-99.99,,2013-07-24 21:10:00,
2013-07-24 15:10:00,86.0,57.0,-100.00,SW,235,6.0,10.0,37,-99.99,,,-99.99,,2013-07-24 22:10:00,
2013-07-24 16:10:00,87.0,56.0,-100.00,WSW,250,6.0,10.0,34,-99.99,,,-99.99,,2013-07-24 23:10:00,
2013-07-24 18:10:00,87.0,56.0,-100.00,SE,130,3.0,10.0,34,-99.99,,,-99.99,,2013-07-25 01:10:00,
2013-07-24 19:02:00,87.0,56.0,-100.00,SE,130,3.0,10.0,34,-99.99,,,-99.99,,2013-07-25 02:02:00,
2013-07-24 19:10:00,78.0,58.0,-100.00,NNE,30,1.0,6.0,50,-99.99,,,-99.99,,2013-07-25 02:10:00,
2013-07-24 20:10:00,71.0,56.0,-100.00,ENE,60,1.0,5.0,59,-99.99,,,-99.99,,2013-07-25 03:10:00,
2013-07-24 21:10:00,67.0,55.0,-100.00,NNE,20,1.0,3.0,65,-99.99,,,-99.99,,2013-07-25 04:10:00,
2013-07-24 22:10:00,62.0,53.0,-100.00,ESE,120,2.0,5.0,72,-99.99,,,-99.99,,2013-07-25 05:10:00,
2013-07-24 23:10:00,59.0,51.0,-100.00,ESE,110,6.0,9.0,74,-99.99,,,-99.99,,2013-07-25 06:10:00,